Time;durP1;ratioP1;P1;durP2;ratioP2;P2;SDS_P1;SDS_P2;PMS_P1;PMS_P2;Temp;Humidity;BMP_temperature;BMP_pressure;BME280_temperature;BME280_humidity;BME280_pressure;Samples;Min_cycle;Max_cycle;Signal;HPM_P1;HPM_P2
2022/12/17 13:08:06;;;;;;;111.50;39.27;;;-2.10;99.90;;;;;;10324146;28;20038;-79
2022/12/17 13:13:15;;;;;;;107.27;38.33;;;-2.10;99.90;;;;;;10314865;28;20032;-82
2022/12/17 13:18:33;;;;;;;119.13;42.67;;;-2.10;99.90;;;;;;10319608;28;20062;-79
2022/12/17 13:23:36;;;;;;;115.90;40.47;;;-2.20;99.90;;;;;;10312846;28;20042;-80
2022/12/17 13:28:38;;;;;;;109.07;38.37;;;-2.20;99.90;;;;;;10323784;28;20022;-82
2022/12/17 13:33:54;;;;;;;117.30;41.87;;;-2.20;99.90;;;;;;10324168;28;20033;-83
2022/12/17 13:39:14;;;;;;;124.57;38.97;;;-2.30;99.90;;;;;;10322298;28;20062;-81
2022/12/17 13:44:26;;;;;;;132.87;42.03;;;-2.30;99.90;;;;;;10312884;28;20046;-80
2022/12/17 13:49:28;;;;;;;130.37;44.10;;;-2.30;99.90;;;;;;10323339;28;20450;-78
2022/12/17 13:54:29;;;;;;;124.73;43.53;;;-2.30;99.90;;;;;;10300886;28;20031;-80
2022/12/17 13:59:30;;;;;;;135.13;44.43;;;-2.30;99.90;;;;;;10319112;28;20030;-79
2022/12/17 14:04:31;;;;;;;124.57;42.30;;;-2.40;99.90;;;;;;10320010;28;20037;-79
2022/12/17 14:09:37;;;;;;;126.47;41.40;;;-2.40;99.90;;;;;;10312629;28;20076;-79
2022/12/17 14:14:44;;;;;;;136.87;43.80;;;-2.50;99.90;;;;;;10314740;28;20105;-80
2022/12/17 14:19:47;;;;;;;130.77;45.70;;;-2.60;99.90;;;;;;10321020;28;20026;-80
2022/12/17 14:24:48;;;;;;;135.57;44.67;;;-2.60;99.90;;;;;;10306264;28;20084;-79
2022/12/17 14:29:48;;;;;;;119.33;40.90;;;-2.50;99.90;;;;;;10314342;28;20080;-79
2022/12/17 14:34:49;;;;;;;133.87;44.70;;;-2.50;99.90;;;;;;10322595;28;20030;-79
2022/12/17 14:39:51;;;;;;;125.87;42.97;;;-2.60;99.90;;;;;;10311184;28;20051;-81
2022/12/17 14:44:53;;;;;;;125.07;42.03;;;-2.70;99.90;;;;;;10314730;28;20058;-80
2022/12/17 14:50:05;;;;;;;140.23;43.57;;;-2.80;99.90;;;;;;10322140;28;20026;-81
2022/12/17 14:55:25;;;;;;;137.30;44.70;;;-2.80;99.90;;;;;;10317379;28;20049;-80
2022/12/17 15:00:26;;;;;;;112.27;33.70;;;-2.90;99.90;;;;;;10309877;28;20141;-81
2022/12/17 15:05:26;;;;;;;125.27;43.50;;;-2.90;99.90;;;;;;10321060;28;20034;-83
2022/12/17 15:10:27;;;;;;;123.63;42.77;;;-2.90;99.90;;;;;;10318039;28;20026;-83
2022/12/17 15:15:27;;;;;;;129.40;40.13;;;-3.00;99.90;;;;;;10313848;28;20030;-81
2022/12/17 15:20:28;;;;;;;128.10;39.17;;;-3.00;99.90;;;;;;10320414;28;20030;-82
2022/12/17 15:25:29;;;;;;;126.10;43.10;;;-3.00;99.90;;;;;;10317635;28;20030;-82
2022/12/17 15:30:29;;;;;;;124.87;42.87;;;-3.10;99.90;;;;;;10351610;28;20065;-83
2022/12/17 15:35:30;;;;;;;124.73;40.57;;;-3.10;99.90;;;;;;10317858;28;20491;-81
2022/12/17 15:40:30;;;;;;;137.47;43.40;;;-3.10;99.90;;;;;;10345713;28;20097;-81
2022/12/17 15:45:31;;;;;;;121.83;38.77;;;-3.10;99.90;;;;;;10320033;28;20137;-80
2022/12/17 15:50:32;;;;;;;139.20;42.20;;;-3.20;99.90;;;;;;10319622;28;20117;-81
2022/12/17 15:55:33;;;;;;;129.13;41.53;;;-3.20;99.90;;;;;;10318463;28;20053;-81
2022/12/17 16:00:34;;;;;;;144.63;45.50;;;-3.30;99.90;;;;;;10319463;28;20108;-81
2022/12/17 16:05:34;;;;;;;139.50;42.83;;;-3.30;99.90;;;;;;10315781;28;20084;-86
2022/12/17 16:10:36;;;;;;;131.67;41.50;;;-3.30;99.90;;;;;;10310895;28;20745;-85
2022/12/17 16:15:37;;;;;;;141.70;44.47;;;-3.30;99.90;;;;;;10319188;28;20070;-80
2022/12/17 16:20:38;;;;;;;147.93;43.40;;;-3.30;99.90;;;;;;10317965;28;20506;-81
2022/12/17 16:25:38;;;;;;;131.67;44.60;;;-3.40;99.90;;;;;;10303335;28;20076;-80
2022/12/17 16:30:39;;;;;;;111.80;34.37;;;-3.40;99.90;;;;;;10318817;28;20474;-83
2022/12/17 16:35:39;;;;;;;128.73;40.50;;;-3.50;99.90;;;;;;10315775;28;20073;-82
2022/12/17 16:40:40;;;;;;;139.23;46.77;;;-3.60;99.90;;;;;;10313772;28;20483;-81
2022/12/17 16:45:48;;;;;;;128.00;43.03;;;-3.70;99.90;;;;;;10318031;28;20026;-83
2022/12/17 16:50:49;;;;;;;132.37;44.17;;;-3.70;99.90;;;;;;10318940;28;20018;-83
2022/12/17 16:55:50;;;;;;;131.27;40.23;;;-3.70;99.90;;;;;;10356024;28;20034;-81
2022/12/17 17:00:53;;;;;;;112.77;37.93;;;-3.70;99.90;;;;;;10325341;28;20054;-83
2022/12/17 17:05:59;;;;;;;125.73;42.20;;;-3.70;99.90;;;;;;10325634;28;20070;-81
2022/12/17 17:11:08;;;;;;;134.17;39.87;;;-3.80;99.90;;;;;;10324699;28;20552;-84
2022/12/17 17:16:10;;;;;;;153.13;52.10;;;-3.80;99.90;;;;;;10325337;28;20037;-82
2022/12/17 17:21:26;;;;;;;92.70;29.73;;;-3.80;99.90;;;;;;10320134;28;20046;-84
2022/12/17 17:26:29;;;;;;;116.93;40.63;;;-3.80;99.90;;;;;;10313288;28;20089;-81
2022/12/17 17:31:30;;;;;;;121.40;42.43;;;-3.90;99.90;;;;;;10322964;28;20152;-81
2022/12/17 17:36:30;;;;;;;137.80;43.90;;;-3.90;99.90;;;;;;10310993;28;20041;-81
2022/12/17 17:41:34;;;;;;;114.90;37.17;;;-4.00;99.90;;;;;;10315158;28;20376;-82
2022/12/17 17:46:34;;;;;;;117.70;39.60;;;-3.90;99.90;;;;;;10323072;28;20238;-82
2022/12/17 17:51:40;;;;;;;131.07;43.30;;;-4.00;99.90;;;;;;10322346;28;20129;-81
2022/12/17 17:56:41;;;;;;;110.17;39.20;;;-3.90;99.90;;;;;;10323459;28;20852;-82
2022/12/17 18:01:49;;;;;;;110.93;35.73;;;-3.90;99.90;;;;;;10322884;28;20038;-80
2022/12/17 18:06:50;;;;;;;98.27;33.57;;;-3.90;99.90;;;;;;10318989;28;20035;-80
2022/12/17 18:11:50;;;;;;;113.87;34.73;;;-3.90;99.90;;;;;;10322620;28;20044;-81
2022/12/17 18:16:50;;;;;;;100.23;30.13;;;-3.90;99.90;;;;;;10322538;28;20069;-79
2022/12/17 18:21:52;;;;;;;123.70;40.97;;;-3.80;99.90;;;;;;10322219;28;20042;-79
2022/12/17 18:26:52;;;;;;;109.30;35.33;;;-3.80;99.90;;;;;;10319088;28;20467;-79
2022/12/17 18:31:54;;;;;;;129.23;38.70;;;-3.80;99.90;;;;;;10322472;28;20030;-80
2022/12/17 18:36:54;;;;;;;104.33;33.73;;;-3.80;99.90;;;;;;10317865;28;20035;-81
2022/12/17 18:47:14;;;;;;;146.07;46.37;;;-3.70;99.90;;;;;;10321159;28;20054;-79
2022/12/17 18:52:15;;;;;;;134.37;45.07;;;-3.70;99.90;;;;;;10314593;28;20038;-79
2022/12/17 18:57:15;;;;;;;105.13;33.20;;;-3.70;99.90;;;;;;10316242;28;20030;-78
2022/12/17 19:02:16;;;;;;;112.50;33.20;;;-3.70;99.90;;;;;;10321931;28;20049;-80
2022/12/17 19:07:16;;;;;;;116.83;39.83;;;-3.70;99.90;;;;;;10318025;28;20026;-81
2022/12/17 19:12:17;;;;;;;117.93;36.93;;;-3.60;99.90;;;;;;10320224;28;20038;-79
2022/12/17 19:17:18;;;;;;;114.70;37.63;;;-3.60;99.90;;;;;;10320296;28;20034;-78
2022/12/17 19:22:18;;;;;;;122.10;42.90;;;-3.70;99.90;;;;;;10311049;28;20498;-79
2022/12/17 19:27:19;;;;;;;96.13;35.70;;;-3.60;99.90;;;;;;10312351;28;20077;-80
2022/12/17 19:32:19;;;;;;;106.07;35.30;;;-3.70;99.90;;;;;;10308421;28;20026;-79
2022/12/17 19:37:20;;;;;;;128.60;43.83;;;-3.60;99.90;;;;;;10315344;28;20034;-78
2022/12/17 19:42:23;;;;;;;111.30;34.23;;;-3.60;99.90;;;;;;10318785;28;20137;-81
2022/12/17 19:47:24;;;;;;;127.10;40.70;;;-3.70;99.90;;;;;;10319705;28;20719;-79
2022/12/17 19:52:25;;;;;;;108.93;37.63;;;-3.60;99.90;;;;;;10319005;28;20027;-81
2022/12/17 19:57:25;;;;;;;135.07;45.07;;;-3.60;99.90;;;;;;10311559;28;20234;-81
2022/12/17 20:02:26;;;;;;;112.63;37.13;;;-3.60;99.90;;;;;;10305566;28;20054;-79
2022/12/17 20:07:26;;;;;;;104.13;32.97;;;-3.70;99.90;;;;;;10315624;28;20038;-84
2022/12/17 20:12:27;;;;;;;100.03;33.73;;;-3.70;99.90;;;;;;10319330;28;20418;-79
2022/12/17 20:17:27;;;;;;;93.87;34.03;;;-3.70;99.90;;;;;;10304713;28;20569;-79
2022/12/17 20:22:29;;;;;;;94.30;31.30;;;-3.70;99.90;;;;;;10313384;28;20046;-79
2022/12/17 20:27:30;;;;;;;91.93;32.83;;;-3.70;99.90;;;;;;10315291;28;20018;-79
2022/12/17 20:32:33;;;;;;;83.50;29.20;;;-3.70;99.90;;;;;;10326121;28;20026;-79
2022/12/17 20:37:34;;;;;;;96.53;35.13;;;-3.70;99.90;;;;;;10312513;28;20105;-79
2022/12/17 20:42:34;;;;;;;86.33;31.43;;;-3.60;99.90;;;;;;10326245;28;20666;-79
2022/12/17 20:47:35;;;;;;;107.20;39.60;;;-3.60;99.90;;;;;;10320619;28;20026;-82
2022/12/17 20:52:35;;;;;;;87.73;29.40;;;-3.60;99.90;;;;;;10316448;28;20117;-81
2022/12/17 20:57:36;;;;;;;93.20;32.70;;;-3.60;99.90;;;;;;10322072;28;20034;-79
2022/12/17 21:02:36;;;;;;;95.07;32.03;;;-3.60;99.90;;;;;;10319091;28;20046;-82
2022/12/17 21:07:37;;;;;;;92.80;31.10;;;-3.60;99.90;;;;;;10321354;28;20489;-79
2022/12/17 21:17:57;;;;;;;88.80;28.57;;;-3.60;99.90;;;;;;10323448;28;20054;-83
2022/12/17 21:22:57;;;;;;;88.50;28.20;;;-3.60;99.90;;;;;;10321752;28;20038;-81
2022/12/17 21:27:58;;;;;;;68.60;27.00;;;-3.70;99.90;;;;;;10324676;28;20065;-79
2022/12/17 21:32:58;;;;;;;87.17;29.70;;;-3.70;99.90;;;;;;10317868;28;20141;-82
2022/12/17 21:37:59;;;;;;;79.67;27.03;;;-3.60;99.90;;;;;;10311571;28;20049;-81
2022/12/17 21:43:02;;;;;;;97.27;31.37;;;-3.60;99.90;;;;;;10309050;28;20051;-80
2022/12/17 21:48:04;;;;;;;82.10;29.97;;;-3.60;99.90;;;;;;10320317;28;20042;-83
2022/12/17 21:53:05;;;;;;;79.57;26.87;;;-3.70;99.90;;;;;;10321428;28;20037;-82
2022/12/17 21:58:06;;;;;;;85.37;28.27;;;-3.70;99.90;;;;;;10318585;28;20490;-79
2022/12/17 22:03:07;;;;;;;78.60;28.17;;;-3.70;99.90;;;;;;10322564;28;20482;-80
2022/12/17 22:08:08;;;;;;;99.83;32.23;;;-3.70;99.90;;;;;;10315491;28;20065;-80
2022/12/17 22:18:31;;;;;;;79.60;29.97;;;-3.60;99.90;;;;;;10290816;28;20337;-83
2022/12/17 22:23:31;;;;;;;75.40;27.57;;;-3.60;99.90;;;;;;10319467;28;20067;-81
2022/12/17 22:28:32;;;;;;;76.87;25.57;;;-3.60;99.90;;;;;;10322332;28;20394;-81
2022/12/17 22:33:33;;;;;;;67.60;21.93;;;-3.70;99.90;;;;;;10311506;28;20037;-80
2022/12/17 22:38:33;;;;;;;80.40;25.87;;;-3.70;99.90;;;;;;10320794;28;20530;-83
2022/12/17 22:43:34;;;;;;;66.33;23.63;;;-3.70;99.90;;;;;;10317976;28;20129;-83
2022/12/17 22:48:36;;;;;;;65.70;22.90;;;-3.80;99.90;;;;;;10316239;28;20223;-83
2022/12/17 22:53:36;;;;;;;69.13;25.37;;;-3.70;99.90;;;;;;10320320;28;20474;-80
2022/12/17 22:58:37;;;;;;;70.97;25.40;;;-3.80;99.90;;;;;;10309450;28;20302;-83
2022/12/17 23:03:38;;;;;;;72.90;25.47;;;-3.70;99.90;;;;;;10297826;28;20085;-82
2022/12/17 23:08:39;;;;;;;72.47;26.97;;;-3.70;99.90;;;;;;10320598;28;20023;-80
2022/12/17 23:13:40;;;;;;;54.33;19.80;;;-3.70;99.90;;;;;;10300588;28;20030;-80
2022/12/17 23:18:41;;;;;;;56.77;21.73;;;-3.70;99.90;;;;;;10311469;28;20031;-79
2022/12/17 23:23:42;;;;;;;47.87;17.80;;;-3.70;99.90;;;;;;10318491;28;20500;-79
2022/12/17 23:28:43;;;;;;;51.93;18.63;;;-3.80;99.90;;;;;;10296929;28;20023;-81
2022/12/17 23:33:45;;;;;;;55.07;19.57;;;-3.70;99.90;;;;;;10308904;28;20665;-80
2022/12/17 23:38:46;;;;;;;60.67;20.73;;;-3.70;99.90;;;;;;10317013;28;20057;-79
2022/12/17 23:43:48;;;;;;;55.90;20.87;;;-3.70;99.90;;;;;;10313618;28;20130;-81
2022/12/17 23:48:49;;;;;;;59.30;22.40;;;-3.70;99.90;;;;;;10316335;28;20034;-83
2022/12/17 23:53:50;;;;;;;68.93;25.53;;;-3.60;99.90;;;;;;10316894;28;20038;-79
2022/12/17 23:58:53;;;;;;;70.40;25.43;;;-3.60;99.90;;;;;;10308404;28;20737;-80
